Time;durP1;ratioP1;P1;durP2;ratioP2;P2;SDS_P1;SDS_P2;PMS_P1;PMS_P2;Temp;Humidity;BMP_temperature;BMP_pressure;BME280_temperature;BME280_humidity;BME280_pressure;Samples;Min_cycle;Max_cycle;Signal;HPM_P1;HPM_P2
2021/09/04 00:03:47;;;;;;;17.00;12.80;;;;;;;;;;5006824;28;20054;-87
2021/09/04 00:06:14;;;;;;;16.05;11.50;;;;;;;;;;5018311;28;20049;-87
2021/09/04 00:08:42;;;;;;;14.02;11.23;;;;;;;;;;5018145;28;20045;-86
2021/09/04 00:11:26;;;;;;;;;;;;;;;;;;;;;
2021/09/04 00:14:21;;;;;;;17.58;11.93;;;;;;;;;;5017835;28;20061;-87
2021/09/04 00:16:56;;;;;;;16.27;11.38;;;;;;;;;;5016203;28;20053;-86
2021/09/04 00:19:23;;;;;;;14.68;11.88;;;;;;;;;;5048275;23;20660;-87
2021/09/04 00:21:50;;;;;;;15.18;11.85;;;;;;;;;;5018760;28;20461;-86
2021/09/04 00:24:24;;;;;;;15.60;11.93;;;;;;;;;;5017953;28;20101;-87
2021/09/04 00:27:01;;;;;;;15.63;12.32;;;;;;;;;;5018739;28;20057;-87
2021/09/04 00:29:56;;;;;;;14.88;12.25;;;;;;;;;;5014508;28;20112;-87
2021/09/04 00:35:30;;;;;;;14.45;11.40;;;;;;;;;;5016890;28;20082;-87
2021/09/04 00:40:47;;;;;;;16.95;12.77;;;;;;;;;;5035592;23;20049;-86
2021/09/04 00:43:20;;;;;;;15.30;12.65;;;;;;;;;;5015036;28;20066;-86
2021/09/04 00:46:13;;;;;;;16.50;12.65;;;;;;;;;;5014510;28;20050;-87
2021/09/04 00:48:49;;;;;;;16.65;12.80;;;;;;;;;;5014087;28;20047;-88
2021/09/04 00:51:24;;;;;;;17.58;12.75;;;;;;;;;;5013692;28;20066;-86
2021/09/04 00:59:24;;;;;;;15.48;12.63;;;;;;;;;;5014023;28;20064;-87
2021/09/04 01:04:59;;;;;;;16.25;12.55;;;;;;;;;;5014025;28;20141;-87
2021/09/04 01:07:29;;;;;;;16.38;12.13;;;;;;;;;;5017641;28;20054;-87
2021/09/04 01:10:27;;;;;;;14.85;12.27;;;;;;;;;;5020707;28;20046;-87
2021/09/04 01:15:48;;;;;;;13.73;11.32;;;;;;;;;;5010537;28;20058;-86
2021/09/04 01:18:15;;;;;;;16.55;13.02;;;;;;;;;;5015842;28;20054;-86
2021/09/04 01:20:54;;;;;;;16.15;11.85;;;;;;;;;;5018913;28;20050;-87
2021/09/04 01:23:34;;;;;;;14.65;10.80;;;;;;;;;;5019943;28;20088;-87
2021/09/04 01:26:13;;;;;;;;;;;;;;;;;;5021315;28;20140;-87
2021/09/04 01:28:40;;;;;;;15.43;11.82;;;;;;;;;;5067799;23;19996;-87
2021/09/04 01:31:16;;;;;;;14.75;11.80;;;;;;;;;;5022879;28;20057;-87
2021/09/04 01:34:12;;;;;;;17.92;12.15;;;;;;;;;;5028784;28;20046;-86
2021/09/04 01:42:22;;;;;;;15.00;11.25;;;;;;;;;;5014311;28;20065;-87
2021/09/04 01:44:55;;;;;;;15.85;12.07;;;;;;;;;;5020013;28;20061;-87
2021/09/04 01:47:54;;;;;;;13.90;10.95;;;;;;;;;;5014710;28;20108;-86
2021/09/04 01:50:20;;;;;;;14.60;10.77;;;;;;;;;;5042318;23;20050;-83
2021/09/04 01:52:47;;;;;;;14.65;11.38;;;;;;;;;;5039856;28;20049;-83
2021/09/04 01:55:17;;;;;;;14.25;11.02;;;;;;;;;;5021531;28;20066;-81
2021/09/04 01:57:45;;;;;;;14.77;11.93;;;;;;;;;;5020161;28;20083;-82
2021/09/04 02:00:14;;;;;;;15.43;11.77;;;;;;;;;;5020073;28;20065;-81
2021/09/04 02:02:42;;;;;;;14.77;11.10;;;;;;;;;;5020889;28;20511;-82
2021/09/04 02:05:10;;;;;;;14.93;12.02;;;;;;;;;;5019872;28;20073;-81
2021/09/04 02:07:37;;;;;;;13.90;11.43;;;;;;;;;;5019855;28;20054;-82
2021/09/04 02:10:05;;;;;;;16.98;11.63;;;;;;;;;;5019364;28;20050;-81
2021/09/04 02:12:32;;;;;;;14.15;11.02;;;;;;;;;;5019708;28;20502;-81
2021/09/04 02:15:00;;;;;;;16.05;11.25;;;;;;;;;;5019775;28;20085;-82
2021/09/04 02:17:27;;;;;;;17.20;12.00;;;;;;;;;;5020178;28;20132;-82
2021/09/04 02:19:53;;;;;;;18.50;12.40;;;;;;;;;;5018700;28;20085;-83
2021/09/04 02:22:20;;;;;;;19.52;12.43;;;;;;;;;;5018897;28;20077;-81
2021/09/04 02:24:47;;;;;;;17.50;13.43;;;;;;;;;;5022271;28;20073;-81
2021/09/04 02:27:13;;;;;;;18.85;12.43;;;;;;;;;;5033373;28;20057;-81
2021/09/04 02:29:40;;;;;;;18.20;12.50;;;;;;;;;;5036702;28;20038;-84
2021/09/04 02:32:09;;;;;;;15.48;11.77;;;;;;;;;;5033317;28;20049;-83
2021/09/04 02:34:35;;;;;;;16.58;11.52;;;;;;;;;;5019309;28;20069;-83
2021/09/04 02:37:02;;;;;;;18.73;12.23;;;;;;;;;;5019386;28;20137;-82
2021/09/04 02:39:29;;;;;;;18.17;12.20;;;;;;;;;;5018586;28;20085;-82
2021/09/04 02:41:55;;;;;;;18.15;12.68;;;;;;;;;;5017903;28;20535;-83
2021/09/04 02:44:22;;;;;;;16.90;12.15;;;;;;;;;;5018136;28;20089;-83
2021/09/04 02:46:49;;;;;;;15.70;12.15;;;;;;;;;;5017096;28;20132;-83
2021/09/04 02:49:17;;;;;;;15.20;12.27;;;;;;;;;;5016429;28;20533;-83
2021/09/04 02:51:43;;;;;;;16.42;12.68;;;;;;;;;;5015461;28;20109;-83
2021/09/04 02:54:10;;;;;;;16.13;13.35;;;;;;;;;;5015951;28;20285;-83
2021/09/04 02:56:37;;;;;;;14.85;12.50;;;;;;;;;;5016003;28;20050;-83
2021/09/04 02:59:04;;;;;;;16.73;12.40;;;;;;;;;;5016144;28;20137;-83
2021/09/04 03:01:31;;;;;;;14.57;11.65;;;;;;;;;;5016055;28;20134;-83
2021/09/04 03:03:57;;;;;;;14.98;11.68;;;;;;;;;;5018876;28;20060;-84
2021/09/04 03:06:25;;;;;;;15.70;12.60;;;;;;;;;;5019052;28;20129;-82
2021/09/04 03:08:54;;;;;;;14.70;11.38;;;;;;;;;;5018428;28;20081;-83
2021/09/04 03:11:20;;;;;;;13.85;11.05;;;;;;;;;;5017340;28;20050;-83
2021/09/04 03:13:47;;;;;;;16.00;11.85;;;;;;;;;;5018081;28;20049;-83
2021/09/04 03:16:13;;;;;;;14.95;10.90;;;;;;;;;;5017836;28;20133;-83
2021/09/04 03:18:40;;;;;;;15.90;11.13;;;;;;;;;;5018452;28;20081;-83
2021/09/04 03:21:07;;;;;;;15.73;11.25;;;;;;;;;;5017060;28;20088;-83
2021/09/04 03:23:35;;;;;;;15.68;11.85;;;;;;;;;;5017568;28;20081;-83
2021/09/04 03:26:02;;;;;;;15.88;11.43;;;;;;;;;;5017527;28;20132;-82
2021/09/04 03:28:28;;;;;;;14.80;10.80;;;;;;;;;;5017785;28;20519;-82
2021/09/04 03:30:55;;;;;;;15.52;11.88;;;;;;;;;;5016617;28;20491;-82
2021/09/04 03:33:22;;;;;;;14.25;11.32;;;;;;;;;;5017811;28;20088;-83
2021/09/04 03:35:49;;;;;;;15.35;11.38;;;;;;;;;;5018597;28;20073;-83
2021/09/04 03:38:16;;;;;;;16.45;11.15;;;;;;;;;;5017778;28;20574;-83
2021/09/04 03:40:44;;;;;;;15.95;11.40;;;;;;;;;;5017254;28;20068;-83
2021/09/04 03:43:11;;;;;;;15.05;11.10;;;;;;;;;;5018062;28;20069;-83
2021/09/04 03:45:38;;;;;;;15.30;11.80;;;;;;;;;;5022085;28;20053;-81
2021/09/04 03:48:05;;;;;;;14.50;10.70;;;;;;;;;;5030141;28;20050;-83
2021/09/04 03:50:32;;;;;;;14.18;10.68;;;;;;;;;;5018698;28;20391;-83
2021/09/04 03:52:58;;;;;;;14.70;10.52;;;;;;;;;;5017677;28;20053;-83
2021/09/04 03:55:25;;;;;;;15.05;10.60;;;;;;;;;;5017252;28;20088;-82
2021/09/04 03:57:53;;;;;;;15.85;10.82;;;;;;;;;;5018446;28;20080;-82
2021/09/04 04:00:20;;;;;;;16.27;11.52;;;;;;;;;;5016195;28;20112;-83
2021/09/04 04:02:47;;;;;;;13.90;11.02;;;;;;;;;;5017446;28;20395;-82
2021/09/04 04:05:13;;;;;;;16.50;11.48;;;;;;;;;;5016873;28;20077;-83
2021/09/04 04:07:40;;;;;;;15.27;11.40;;;;;;;;;;5017111;28;20129;-83
2021/09/04 04:10:08;;;;;;;14.10;10.93;;;;;;;;;;5016210;28;20085;-83
2021/09/04 04:12:35;;;;;;;15.48;11.23;;;;;;;;;;5016586;28;20081;-82
2021/09/04 04:15:03;;;;;;;15.00;11.38;;;;;;;;;;5017111;28;20077;-83
2021/09/04 04:17:31;;;;;;;15.45;10.68;;;;;;;;;;5016813;28;20069;-83
2021/09/04 04:19:58;;;;;;;16.70;11.57;;;;;;;;;;5015416;28;20052;-83
2021/09/04 04:22:24;;;;;;;13.85;10.10;;;;;;;;;;5016444;28;20503;-82
2021/09/04 04:24:51;;;;;;;13.35;10.05;;;;;;;;;;5017028;28;20085;-82
2021/09/04 04:27:18;;;;;;;14.30;10.73;;;;;;;;;;5016995;28;20073;-83
2021/09/04 04:29:44;;;;;;;14.18;9.95;;;;;;;;;;5016517;28;20133;-82
2021/09/04 04:32:12;;;;;;;18.23;10.93;;;;;;;;;;5016148;28;20046;-82
2021/09/04 04:34:39;;;;;;;13.75;10.70;;;;;;;;;;5016339;28;20080;-82
2021/09/04 04:37:06;;;;;;;14.82;10.18;;;;;;;;;;5016602;28;20074;-83
2021/09/04 04:39:32;;;;;;;14.38;10.60;;;;;;;;;;5017114;28;20077;-82
2021/09/04 04:41:59;;;;;;;13.65;9.77;;;;;;;;;;5016206;28;20073;-82
2021/09/04 04:44:26;;;;;;;14.32;10.95;;;;;;;;;;5016388;28;20133;-82
2021/09/04 04:46:53;;;;;;;13.70;10.50;;;;;;;;;;5015944;28;20077;-83
2021/09/04 04:49:21;;;;;;;14.80;11.02;;;;;;;;;;5015503;28;20057;-82
2021/09/04 04:51:51;;;;;;;16.83;11.32;;;;;;;;;;5016039;28;20058;-83
2021/09/04 04:54:18;;;;;;;15.20;10.57;;;;;;;;;;5019105;28;20074;-82
2021/09/04 04:56:44;;;;;;;16.00;10.63;;;;;;;;;;5020312;28;20065;-83
2021/09/04 04:59:11;;;;;;;14.02;10.43;;;;;;;;;;5019698;28;20046;-83
2021/09/04 05:01:38;;;;;;;15.77;11.57;;;;;;;;;;5019380;28;20056;-83
2021/09/04 05:04:05;;;;;;;16.50;11.68;;;;;;;;;;5019530;28;20078;-82
2021/09/04 05:06:33;;;;;;;16.40;11.65;;;;;;;;;;5020054;28;20085;-83
2021/09/04 05:09:00;;;;;;;14.65;11.13;;;;;;;;;;5020224;28;20085;-82
2021/09/04 05:11:26;;;;;;;15.77;11.10;;;;;;;;;;5019363;28;20077;-82
2021/09/04 05:13:53;;;;;;;13.68;10.40;;;;;;;;;;5019484;28;20530;-83
2021/09/04 05:16:20;;;;;;;19.75;11.60;;;;;;;;;;5018725;28;20129;-83
2021/09/04 05:18:47;;;;;;;15.40;11.10;;;;;;;;;;5019754;28;20076;-82
2021/09/04 05:21:14;;;;;;;13.90;10.90;;;;;;;;;;5019789;28;20549;-83
2021/09/04 05:23:42;;;;;;;17.23;12.30;;;;;;;;;;5024649;28;20073;-82
2021/09/04 05:26:10;;;;;;;16.92;11.57;;;;;;;;;;5034165;28;20053;-81
2021/09/04 05:28:38;;;;;;;14.88;11.30;;;;;;;;;;5027814;28;20054;-83
2021/09/04 05:31:05;;;;;;;14.38;10.02;;;;;;;;;;5021289;28;20056;-83
2021/09/04 05:33:32;;;;;;;15.25;11.10;;;;;;;;;;5023761;28;20050;-82
2021/09/04 05:35:58;;;;;;;16.88;11.38;;;;;;;;;;5021627;28;20120;-83
2021/09/04 05:38:25;;;;;;;15.63;11.10;;;;;;;;;;5021494;28;20073;-82
2021/09/04 05:40:53;;;;;;;17.38;12.05;;;;;;;;;;5020408;28;20050;-82
2021/09/04 05:43:20;;;;;;;15.88;11.15;;;;;;;;;;5020440;28;20124;-84
2021/09/04 05:45:47;;;;;;;15.43;10.55;;;;;;;;;;5023464;28;20050;-81
2021/09/04 05:48:14;;;;;;;14.07;10.70;;;;;;;;;;5027726;28;20046;-83
2021/09/04 05:50:40;;;;;;;14.75;10.63;;;;;;;;;;5020177;28;20128;-84
2021/09/04 05:53:07;;;;;;;15.02;9.32;;;;;;;;;;5020392;28;20129;-83
2021/09/04 05:55:34;;;;;;;13.13;9.50;;;;;;;;;;5020381;28;20076;-83
2021/09/04 05:58:02;;;;;;;12.57;10.07;;;;;;;;;;5020321;28;20046;-83
2021/09/04 06:00:28;;;;;;;13.18;9.30;;;;;;;;;;5019529;28;20403;-83
2021/09/04 06:02:55;;;;;;;13.38;10.02;;;;;;;;;;5024268;28;20080;-83
2021/09/04 06:05:22;;;;;;;14.90;9.95;;;;;;;;;;5020137;28;20054;-83
2021/09/04 06:07:48;;;;;;;14.27;10.10;;;;;;;;;;5020445;28;20085;-83
2021/09/04 06:10:16;;;;;;;13.18;9.85;;;;;;;;;;5019927;28;20081;-83
2021/09/04 06:12:42;;;;;;;14.75;9.55;;;;;;;;;;5019332;28;20521;-84
2021/09/04 06:15:11;;;;;;;16.02;10.05;;;;;;;;;;5019583;28;20096;-83
2021/09/04 06:17:37;;;;;;;13.35;9.18;;;;;;;;;;5020226;28;20503;-82
2021/09/04 06:20:06;;;;;;;14.20;9.57;;;;;;;;;;5019147;28;20530;-83
2021/09/04 06:22:32;;;;;;;16.15;11.02;;;;;;;;;;5019873;28;20491;-83
2021/09/04 06:24:59;;;;;;;13.10;9.45;;;;;;;;;;5019209;28;20573;-84
2021/09/04 06:27:26;;;;;;;14.45;9.88;;;;;;;;;;5019351;28;20085;-83
2021/09/04 06:29:52;;;;;;;13.82;10.32;;;;;;;;;;5018828;28;20053;-84
2021/09/04 06:32:20;;;;;;;14.85;10.02;;;;;;;;;;5018972;28;20237;-82
2021/09/04 06:34:47;;;;;;;14.20;9.93;;;;;;;;;;5019962;28;20042;-83
2021/09/04 06:37:14;;;;;;;11.77;9.23;;;;;;;;;;5019627;28;20468;-83
2021/09/04 06:39:40;;;;;;;12.70;10.10;;;;;;;;;;5020046;28;20069;-84
2021/09/04 06:42:07;;;;;;;13.75;10.18;;;;;;;;;;5021800;28;20092;-83
2021/09/04 06:44:34;;;;;;;14.82;10.50;;;;;;;;;;5022571;28;20197;-83
2021/09/04 06:47:01;;;;;;;12.95;10.32;;;;;;;;;;5018922;28;20078;-82
2021/09/04 06:49:29;;;;;;;14.88;10.20;;;;;;;;;;5018469;28;20088;-83
2021/09/04 06:51:55;;;;;;;15.52;10.40;;;;;;;;;;5018616;28;20081;-83
2021/09/04 06:54:24;;;;;;;18.55;12.65;;;;;;;;;;5018278;28;20125;-83
2021/09/04 06:56:51;;;;;;;13.75;10.15;;;;;;;;;;5018477;28;20515;-82
2021/09/04 06:59:18;;;;;;;14.98;10.88;;;;;;;;;;5018412;28;20077;-83
2021/09/04 07:01:46;;;;;;;13.60;10.25;;;;;;;;;;5017831;28;20085;-82
2021/09/04 07:04:12;;;;;;;13.85;10.30;;;;;;;;;;5018427;28;20480;-82
2021/09/04 07:06:41;;;;;;;15.15;10.80;;;;;;;;;;5018277;28;20133;-83
2021/09/04 07:09:08;;;;;;;13.40;10.20;;;;;;;;;;5018460;28;20072;-83
2021/09/04 07:11:34;;;;;;;13.15;10.45;;;;;;;;;;5018759;28;20497;-82
2021/09/04 07:14:01;;;;;;;14.63;10.52;;;;;;;;;;5018648;28;20077;-83
2021/09/04 07:16:28;;;;;;;14.32;10.43;;;;;;;;;;5017875;28;20085;-82
2021/09/04 07:18:54;;;;;;;17.30;11.30;;;;;;;;;;5018257;28;20069;-82
2021/09/04 07:21:21;;;;;;;16.08;11.50;;;;;;;;;;5018682;28;20518;-83
2021/09/04 07:23:49;;;;;;;14.82;10.77;;;;;;;;;;5019650;28;20084;-82
2021/09/04 07:26:16;;;;;;;15.05;9.80;;;;;;;;;;5018903;28;20082;-83
2021/09/04 07:28:43;;;;;;;17.50;11.50;;;;;;;;;;5018884;28;20092;-83
2021/09/04 07:31:09;;;;;;;16.70;12.20;;;;;;;;;;5018349;28;20142;-83
2021/09/04 07:33:36;;;;;;;16.98;12.82;;;;;;;;;;5018507;28;20076;-83
2021/09/04 07:36:08;;;;;;;16.23;11.57;;;;;;;;;;5018676;28;20073;-83
2021/09/04 07:38:35;;;;;;;14.55;11.05;;;;;;;;;;5018797;28;20133;-82
2021/09/04 07:41:03;;;;;;;16.10;11.40;;;;;;;;;;5018092;28;20045;-83
2021/09/04 07:43:30;;;;;;;13.90;11.20;;;;;;;;;;5018040;28;20100;-82
2021/09/04 07:45:57;;;;;;;13.70;10.18;;;;;;;;;;5018683;28;20046;-82
2021/09/04 07:48:25;;;;;;;15.10;12.10;;;;;;;;;;5017909;28;20125;-83
2021/09/04 08:29:00;;;;;;;15.07;11.40;;;;;;;;;;4971319;28;20053;-85
2021/09/04 08:31:26;;;;;;;15.90;11.13;;;;;;;;;;5054563;28;20053;-85
2021/09/04 08:33:59;;;;;;;15.73;11.18;;;;;;;;;;5042313;28;20156;-85
2021/09/04 08:36:33;;;;;;;13.07;10.23;;;;;;;;;;5038229;28;20079;-84
2021/09/04 08:39:03;;;;;;;13.45;9.93;;;;;;;;;;5055667;28;20065;-85
2021/09/04 08:42:32;;;;;;;17.95;11.57;;;;;;;;;;5060516;28;20111;-84
2021/09/04 08:45:41;;;;;;;14.90;10.77;;;;;;;;;;5062547;28;20053;-84
2021/09/04 08:48:15;;;;;;;19.98;10.80;;;;;;;;;;5032872;28;20080;-84
2021/09/04 08:51:07;;;;;;;13.43;10.10;;;;;;;;;;5056004;28;20049;-84
2021/09/04 08:53:41;;;;;;;14.57;9.93;;;;;;;;;;5056339;28;20401;-84
2021/09/04 08:56:14;;;;;;;14.93;11.73;;;;;;;;;;5056393;28;20049;-84
2021/09/04 08:58:49;;;;;;;12.45;9.40;;;;;;;;;;5056380;28;20069;-84
2021/09/04 09:01:59;;;;;;;13.38;10.40;;;;;;;;;;5056027;28;20132;-84
2021/09/04 09:07:54;;;;;;;17.05;10.07;;;;;;;;;;5025147;28;20061;-84
2021/09/04 09:10:44;;;;;;;11.70;9.75;;;;;;;;;;5073239;23;20067;-85
2021/09/04 09:13:23;;;;;;;13.02;9.57;;;;;;;;;;5075685;28;20463;-85
2021/09/04 09:19:17;;;;;;;14.73;10.20;;;;;;;;;;5070830;28;20052;-85
2021/09/04 09:22:18;;;;;;;13.80;9.60;;;;;;;;;;5055311;28;20460;-85
2021/09/04 09:25:24;;;;;;;11.65;8.98;;;;;;;;;;5055449;28;20102;-85
2021/09/04 09:28:18;;;;;;;12.88;8.70;;;;;;;;;;4955253;29;20055;-85
2021/09/04 09:31:00;;;;;;;11.90;8.43;;;;;;;;;;5075993;22;20045;-85
2021/09/04 09:33:41;;;;;;;12.98;8.75;;;;;;;;;;5094242;28;20096;-85
2021/09/04 09:36:08;;;;;;;10.38;7.90;;;;;;;;;;5095306;28;20045;-85
2021/09/04 09:39:07;;;;;;;11.70;9.50;;;;;;;;;;5096906;28;20052;-85
2021/09/04 09:42:38;;;;;;;12.75;8.68;;;;;;;;;;4970424;28;20054;-85
2021/09/04 09:48:37;;;;;;;10.52;7.07;;;;;;;;;;4979207;28;19921;-85
2021/09/04 09:51:34;;;;;;;11.05;7.40;;;;;;;;;;5054526;28;20048;-85
2021/09/04 09:54:01;;;;;;;8.60;6.78;;;;;;;;;;5056809;28;20045;-87
2021/09/04 09:59:19;;;;;;;10.38;6.57;;;;;;;;;;5041990;28;20053;-86
2021/09/04 10:02:17;;;;;;;9.55;6.18;;;;;;;;;;5056053;28;20059;-86
2021/09/04 10:10:17;;;;;;;9.55;6.30;;;;;;;;;;4973683;28;20051;-86
2021/09/04 10:15:33;;;;;;;10.52;8.75;;;;;;;;;;4974029;28;20210;-86
2021/09/04 10:21:44;;;;;;;10.10;6.93;;;;;;;;;;4954168;29;20633;-86
2021/09/04 10:24:30;;;;;;;;;;;;;;;;;;;;;
2021/09/04 10:27:01;;;;;;;9.25;6.60;;;;;;;;;;4998489;28;20063;-86
2021/09/04 10:29:28;;;;;;;10.00;6.88;;;;;;;;;;5066110;22;20044;-86
2021/09/04 10:32:25;;;;;;;10.18;7.00;;;;;;;;;;5073316;28;20505;-86
2021/09/04 10:36:08;;;;;;;9.25;7.13;;;;;;;;;;5075017;28;20135;-86
2021/09/04 10:39:12;;;;;;;11.40;7.57;;;;;;;;;;5039272;28;20493;-86
2021/09/04 10:41:40;;;;;;;9.98;7.43;;;;;;;;;;5054314;28;20053;-86
2021/09/04 10:44:16;;;;;;;10.50;7.50;;;;;;;;;;5054684;28;20075;-84
2021/09/04 10:49:53;;;;;;;11.45;8.25;;;;;;;;;;5025579;28;20067;-85
2021/09/04 10:53:07;;;;;;;9.27;7.20;;;;;;;;;;5054339;28;20045;-85
2021/09/04 10:55:50;;;;;;;9.93;6.85;;;;;;;;;;5054909;28;20144;-87
2021/09/04 11:02:02;;;;;;;11.90;6.85;;;;;;;;;;5172230;22;20065;-87
2021/09/04 11:04:38;;;;;;;9.18;6.45;;;;;;;;;;5071714;28;20057;-86
2021/09/04 11:07:10;;;;;;;9.95;7.93;;;;;;;;;;5063092;28;20501;-86
2021/09/04 11:09:57;;;;;;;9.35;6.53;;;;;;;;;;5058016;28;20060;-85
2021/09/04 11:12:47;;;;;;;8.02;6.00;;;;;;;;;;5056335;28;20055;-85
2021/09/04 11:15:29;;;;;;;8.45;5.90;;;;;;;;;;5035802;28;20050;-86
2021/09/04 11:18:50;;;;;;;8.32;6.10;;;;;;;;;;5036734;28;20051;-86
2021/09/04 11:25:11;;;;;;;9.07;6.95;;;;;;;;;;5026627;28;20564;-87
2021/09/04 11:30:42;;;;;;;8.10;6.18;;;;;;;;;;5130199;22;20048;-87
2021/09/04 11:33:22;;;;;;;9.15;6.28;;;;;;;;;;5075495;28;20048;-87
2021/09/04 11:36:26;;;;;;;7.78;5.43;;;;;;;;;;5076763;28;20049;-87
2021/09/04 11:42:06;;;;;;;9.57;6.00;;;;;;;;;;5056603;28;20103;-86
2021/09/04 11:54:05;;;;;;;8.38;5.38;;;;;;;;;;4969834;28;20065;-85
2021/09/04 11:56:38;;;;;;;7.53;5.07;;;;;;;;;;5036450;28;20494;-86
2021/09/04 11:59:21;;;;;;;6.68;5.10;;;;;;;;;;5033736;28;20049;-86
2021/09/04 12:02:11;;;;;;;6.53;4.78;;;;;;;;;;5034091;28;20107;-86
2021/09/04 12:04:45;;;;;;;7.63;5.07;;;;;;;;;;5033649;28;20042;-86
2021/09/04 12:10:09;;;;;;;7.80;5.28;;;;;;;;;;4971494;28;20081;-86
2021/09/04 12:18:30;;;;;;;6.97;5.07;;;;;;;;;;4966508;28;20133;-86
2021/09/04 12:21:14;;;;;;;7.53;5.70;;;;;;;;;;4972018;28;20198;-86
2021/09/04 12:27:59;;;;;;;7.60;5.00;;;;;;;;;;4958045;28;20082;-86
2021/09/04 12:33:22;;;;;;;6.20;4.30;;;;;;;;;;4969951;28;20527;-86
2021/09/04 12:36:07;;;;;;;7.68;5.40;;;;;;;;;;4971517;28;20074;-85
2021/09/04 12:38:48;;;;;;;8.25;6.65;;;;;;;;;;4971284;28;20559;-86
2021/09/04 12:41:26;;;;;;;7.88;5.70;;;;;;;;;;5012652;28;20402;-87
2021/09/04 12:44:17;;;;;;;7.38;4.97;;;;;;;;;;5032538;28;20469;-87
2021/09/04 12:47:07;;;;;;;7.13;5.00;;;;;;;;;;5047996;28;20060;-87
2021/09/04 12:49:45;;;;;;;;;;;;;;;;;;;;;
2021/09/04 12:52:19;;;;;;;6.43;4.82;;;;;;;;;;5054733;28;20044;-86
2021/09/04 12:55:01;;;;;;;6.97;5.35;;;;;;;;;;5037163;28;20129;-85
2021/09/04 12:57:35;;;;;;;7.97;7.18;;;;;;;;;;5033403;28;20049;-86
2021/09/04 13:00:13;;;;;;;9.77;6.20;;;;;;;;;;5032834;28;20049;-86
2021/09/04 13:02:50;;;;;;;6.60;5.07;;;;;;;;;;5033525;28;20125;-86
2021/09/04 13:05:22;;;;;;;6.75;5.18;;;;;;;;;;5032469;28;20050;-85
2021/09/04 13:08:07;;;;;;;6.70;4.85;;;;;;;;;;5033125;28;20095;-85
2021/09/04 13:10:37;;;;;;;8.00;5.00;;;;;;;;;;5031964;28;20061;-85
2021/09/04 13:13:23;;;;;;;5.90;4.70;;;;;;;;;;5032751;28;20053;-85
2021/09/04 13:15:56;;;;;;;6.97;5.22;;;;;;;;;;5036790;28;20054;-85
2021/09/04 13:18:29;;;;;;;6.60;5.05;;;;;;;;;;5037319;28;20046;-86
2021/09/04 13:21:06;;;;;;;7.60;4.90;;;;;;;;;;5037311;28;20049;-85
2021/09/04 13:23:40;;;;;;;6.15;4.90;;;;;;;;;;5038119;28;20490;-85
2021/09/04 13:26:12;;;;;;;6.60;4.75;;;;;;;;;;5037526;28;20129;-85
2021/09/04 13:28:54;;;;;;;5.55;4.30;;;;;;;;;;5039088;28;20050;-86
2021/09/04 13:31:21;;;;;;;7.93;4.60;;;;;;;;;;5037878;28;20053;-86
2021/09/04 13:33:57;;;;;;;7.35;5.00;;;;;;;;;;5037307;28;20437;-86
2021/09/04 13:36:30;;;;;;;6.07;4.22;;;;;;;;;;5037750;28;20053;-87
2021/09/04 13:41:26;;;;;;;6.63;4.57;;;;;;;;;;5083535;22;20044;-86
2021/09/04 13:46:56;;;;;;;6.18;4.43;;;;;;;;;;5072260;28;20088;-86
2021/09/04 13:51:54;;;;;;;5.72;4.43;;;;;;;;;;5101397;28;20043;-83
2021/09/04 13:54:21;;;;;;;5.97;4.23;;;;;;;;;;5100904;28;20083;-84
2021/09/04 13:56:48;;;;;;;5.55;4.07;;;;;;;;;;5101303;28;20836;-84
2021/09/04 13:59:16;;;;;;;5.88;4.03;;;;;;;;;;5106376;28;20064;-84
2021/09/04 14:01:43;;;;;;;5.68;4.50;;;;;;;;;;5101832;28;20094;-84
2021/09/04 14:04:09;;;;;;;6.35;4.22;;;;;;;;;;5099878;28;20075;-83
2021/09/04 14:06:36;;;;;;;7.03;4.72;;;;;;;;;;5099248;28;20075;-84
2021/09/04 14:09:03;;;;;;;5.45;3.92;;;;;;;;;;5099492;28;20108;-84
2021/09/04 14:11:29;;;;;;;5.53;4.40;;;;;;;;;;5101809;28;20068;-83
2021/09/04 14:13:56;;;;;;;5.80;4.07;;;;;;;;;;5086780;28;20520;-84
2021/09/04 14:16:24;;;;;;;7.57;5.35;;;;;;;;;;5079243;28;20072;-84
2021/09/04 14:18:51;;;;;;;5.72;4.43;;;;;;;;;;5078681;28;20079;-83
2021/09/04 14:21:18;;;;;;;5.78;4.10;;;;;;;;;;5078689;28;20099;-84
2021/09/04 14:23:44;;;;;;;5.78;4.13;;;;;;;;;;5078733;28;20084;-84
2021/09/04 14:26:11;;;;;;;5.88;4.30;;;;;;;;;;5082050;28;20080;-83
2021/09/04 14:28:38;;;;;;;6.03;4.80;;;;;;;;;;5079940;28;20084;-84
2021/09/04 14:31:04;;;;;;;6.25;3.90;;;;;;;;;;5079050;28;20095;-83
2021/09/04 14:33:32;;;;;;;6.32;4.60;;;;;;;;;;5080937;28;20466;-83
2021/09/04 14:35:59;;;;;;;6.80;4.15;;;;;;;;;;5079471;28;20048;-83
2021/09/04 14:38:26;;;;;;;5.60;3.78;;;;;;;;;;5079623;28;20055;-82
2021/09/04 14:40:52;;;;;;;5.47;4.20;;;;;;;;;;5080632;28;20068;-83
2021/09/04 14:43:19;;;;;;;4.75;3.63;;;;;;;;;;5078468;28;20044;-84
2021/09/04 14:45:46;;;;;;;5.50;4.30;;;;;;;;;;5079012;28;20087;-83
2021/09/04 14:48:12;;;;;;;5.80;3.88;;;;;;;;;;5078705;28;20127;-83
2021/09/04 14:50:40;;;;;;;6.63;4.03;;;;;;;;;;5078451;28;20083;-84
2021/09/04 14:53:07;;;;;;;4.60;3.45;;;;;;;;;;5078299;28;20072;-83
2021/09/04 14:55:34;;;;;;;5.15;3.92;;;;;;;;;;5078557;28;20109;-83
2021/09/04 14:58:01;;;;;;;4.97;3.80;;;;;;;;;;5078653;28;20127;-83
2021/09/04 15:00:27;;;;;;;4.88;3.60;;;;;;;;;;5077819;28;20045;-83
2021/09/04 15:02:54;;;;;;;5.20;3.53;;;;;;;;;;5078148;28;20075;-83
2021/09/04 15:05:21;;;;;;;5.43;3.80;;;;;;;;;;5078620;28;20488;-83
2021/09/04 15:07:49;;;;;;;5.22;3.95;;;;;;;;;;5078355;28;20052;-84
2021/09/04 15:10:16;;;;;;;5.05;3.78;;;;;;;;;;5077307;28;20131;-83
2021/09/04 15:12:43;;;;;;;5.35;4.30;;;;;;;;;;5077808;28;20080;-83
2021/09/04 15:15:11;;;;;;;6.30;5.45;;;;;;;;;;5077665;28;20076;-84
2021/09/04 15:17:37;;;;;;;6.55;4.07;;;;;;;;;;5077452;28;20136;-83
2021/09/04 15:20:05;;;;;;;5.10;3.90;;;;;;;;;;5076480;28;20080;-83
2021/09/04 15:22:32;;;;;;;5.55;4.40;;;;;;;;;;5077580;28;20127;-84
2021/09/04 15:25:01;;;;;;;5.80;3.90;;;;;;;;;;5077065;28;20083;-83
2021/09/04 15:27:27;;;;;;;5.20;3.50;;;;;;;;;;5076833;28;20071;-84
2021/09/04 15:29:54;;;;;;;4.97;3.67;;;;;;;;;;5077024;28;20072;-83
2021/09/04 15:32:21;;;;;;;7.43;4.35;;;;;;;;;;5077108;28;20131;-83
2021/09/04 15:34:47;;;;;;;5.50;3.85;;;;;;;;;;5078445;28;20072;-83
2021/09/04 15:37:14;;;;;;;5.13;3.75;;;;;;;;;;5077067;28;20053;-83
2021/09/04 15:39:41;;;;;;;5.50;4.22;;;;;;;;;;5077596;28;20080;-83
2021/09/04 15:42:09;;;;;;;13.93;12.73;;;;;;;;;;5077447;28;20499;-83
2021/09/04 15:44:35;;;;;;;8.85;7.95;;;;;;;;;;5077869;28;20068;-84
2021/09/04 15:47:03;;;;;;;5.20;4.00;;;;;;;;;;5077343;28;20076;-84
2021/09/04 15:49:29;;;;;;;5.78;3.95;;;;;;;;;;5078602;28;20566;-83
2021/09/04 15:51:56;;;;;;;9.35;8.45;;;;;;;;;;5084344;28;20052;-83
2021/09/04 15:54:23;;;;;;;7.50;6.55;;;;;;;;;;5084486;28;20048;-84
2021/09/04 15:56:50;;;;;;;6.20;4.43;;;;;;;;;;5077710;28;20041;-83
2021/09/04 15:59:19;;;;;;;5.72;4.43;;;;;;;;;;5078024;28;20135;-83
2021/09/04 16:01:45;;;;;;;6.15;4.38;;;;;;;;;;5076845;28;20083;-83
2021/09/04 16:04:12;;;;;;;5.57;4.20;;;;;;;;;;5077377;28;20049;-84
2021/09/04 16:06:39;;;;;;;6.78;5.20;;;;;;;;;;5077992;28;20123;-84
2021/09/04 16:09:07;;;;;;;6.95;4.80;;;;;;;;;;5077832;28;20082;-84
2021/09/04 16:11:34;;;;;;;6.50;4.50;;;;;;;;;;5077979;28;20108;-84
2021/09/04 16:14:00;;;;;;;5.70;4.35;;;;;;;;;;5076453;28;20588;-83
2021/09/04 16:16:29;;;;;;;4.95;4.18;;;;;;;;;;5076724;28;20076;-83
2021/09/04 16:18:55;;;;;;;6.43;4.80;;;;;;;;;;5076701;28;20094;-83
2021/09/04 16:21:22;;;;;;;6.10;4.20;;;;;;;;;;5076533;28;20040;-83
2021/09/04 16:23:49;;;;;;;6.47;4.55;;;;;;;;;;5077376;28;20075;-82
2021/09/04 16:26:15;;;;;;;6.60;4.95;;;;;;;;;;5076867;28;20076;-84
2021/09/04 16:28:42;;;;;;;7.03;4.68;;;;;;;;;;5076666;28;20080;-84
2021/09/04 16:31:09;;;;;;;5.82;4.35;;;;;;;;;;5075981;28;20140;-84
2021/09/04 16:33:42;;;;;;;5.72;4.00;;;;;;;;;;5076805;28;20094;-84
2021/09/04 16:36:09;;;;;;;6.85;4.43;;;;;;;;;;5078867;28;20059;-84
2021/09/04 16:38:36;;;;;;;5.30;4.18;;;;;;;;;;5078719;28;20050;-84
2021/09/04 16:41:03;;;;;;;5.72;3.80;;;;;;;;;;5077842;28;20075;-83
2021/09/04 16:43:29;;;;;;;5.43;3.80;;;;;;;;;;5078456;28;20048;-83
2021/09/04 16:45:56;;;;;;;5.93;4.45;;;;;;;;;;5078082;28;20045;-84
2021/09/04 16:48:23;;;;;;;6.88;4.45;;;;;;;;;;5077486;28;20455;-83
2021/09/04 16:50:51;;;;;;;5.80;3.75;;;;;;;;;;5082317;28;20056;-83
2021/09/04 16:53:17;;;;;;;5.30;3.72;;;;;;;;;;5088514;28;20044;-84
2021/09/04 16:55:44;;;;;;;6.28;3.83;;;;;;;;;;5082332;28;20131;-83
2021/09/04 16:58:11;;;;;;;5.75;4.03;;;;;;;;;;5080978;28;20480;-84
2021/09/04 17:00:38;;;;;;;5.10;3.50;;;;;;;;;;5081275;28;20068;-83
2021/09/04 17:03:05;;;;;;;5.78;4.43;;;;;;;;;;5081777;28;20493;-84
2021/09/04 17:05:33;;;;;;;5.90;4.28;;;;;;;;;;5081622;28;20117;-83
2021/09/04 17:08:03;;;;;;;7.00;4.22;;;;;;;;;;5081282;28;20048;-83
2021/09/04 17:10:30;;;;;;;5.53;3.83;;;;;;;;;;5080422;28;20060;-83
2021/09/04 17:12:56;;;;;;;5.93;3.92;;;;;;;;;;5080724;28;20064;-83
2021/09/04 17:15:26;;;;;;;9.05;4.40;;;;;;;;;;5087536;28;20068;-83